createdAt,value
2023-05-24T00:00:22.473Z,4.75
2023-05-24T00:02:49.673Z,4.68
2023-05-24T00:05:16.768Z,4.25
2023-05-24T00:07:43.755Z,4.53
2023-05-24T00:10:11.205Z,5.18
2023-05-24T00:12:38.388Z,4.05
2023-05-24T00:15:05.996Z,5.05
2023-05-24T00:17:34.757Z,5.68
2023-05-24T00:20:01.846Z,4.50
2023-05-24T00:22:29.312Z,5.15
2023-05-24T00:24:56.112Z,4.18
2023-05-24T00:27:23.053Z,4.80
2023-05-24T00:29:49.903Z,6.68
2023-05-24T00:32:17.522Z,4.47
2023-05-24T00:34:44.705Z,5.18
2023-05-24T00:37:12.850Z,4.60
2023-05-24T00:39:39.916Z,4.72
2023-05-24T00:42:08.271Z,4.90
2023-05-24T00:44:35.238Z,6.13
2023-05-24T00:47:02.233Z,5.32
2023-05-24T00:49:29.434Z,5.80
2023-05-24T00:51:56.357Z,5.35
2023-05-24T00:54:24.304Z,5.25
2023-05-24T00:56:51.670Z,5.38
2023-05-24T00:59:18.613Z,5.40
2023-05-24T01:01:46.996Z,5.40
2023-05-24T01:04:14.757Z,5.75
2023-05-24T01:06:59.216Z,6.50
2023-05-24T01:09:35.021Z,5.43
2023-05-24T01:12:24.883Z,6.18
2023-05-24T01:14:59.546Z,5.20
2023-05-24T01:17:37.587Z,5.18
2023-05-24T01:20:10.158Z,6.07
2023-05-24T01:23:13.354Z,5.97
2023-05-24T01:26:06.702Z,5.80
2023-05-24T01:28:36.024Z,6.00
2023-05-24T01:31:04.008Z,5.78
2023-05-24T01:33:30.948Z,5.18
2023-05-24T01:35:58.022Z,5.80
2023-05-24T01:38:24.808Z,6.50
2023-05-24T01:41:00.324Z,6.07
2023-05-24T01:43:42.332Z,6.10
2023-05-24T01:46:17.655Z,5.53
2023-05-24T01:49:20.879Z,6.75
2023-05-24T01:54:34.058Z,5.55
2023-05-24T01:57:07.102Z,5.40
2023-05-24T01:59:34.852Z,5.03
2023-05-24T02:02:02.509Z,6.50
2023-05-24T02:04:29.576Z,6.25
2023-05-24T02:06:56.301Z,5.85
2023-05-24T02:09:23.228Z,5.03
2023-05-24T02:11:50.509Z,4.43
2023-05-24T02:14:20.138Z,5.05
2023-05-24T02:16:47.478Z,4.97
2023-05-24T02:19:14.740Z,5.80
2023-05-24T02:21:41.735Z,6.28
2023-05-24T02:24:15.002Z,4.90
2023-05-24T02:26:41.926Z,4.93
2023-05-24T02:29:08.833Z,5.65
2023-05-24T02:31:35.862Z,5.32
2023-05-24T02:34:03.282Z,5.53
2023-05-24T02:36:32.612Z,5.60
2023-05-24T02:38:59.638Z,6.03
2023-05-24T02:41:26.936Z,5.85
2023-05-24T02:43:54.081Z,4.97
2023-05-24T02:46:20.883Z,5.10
2023-05-24T02:48:51.132Z,5.80
2023-05-24T02:51:18.220Z,5.28
2023-05-24T02:53:45.537Z,5.97
2023-05-24T02:56:13.937Z,5.78
2023-05-24T02:58:41.540Z,5.43
2023-05-24T03:01:08.792Z,6.25
2023-05-24T03:03:35.993Z,5.68
2023-05-24T03:06:05.091Z,7.05
2023-05-24T03:08:32.504Z,5.38
2023-05-24T03:10:59.311Z,6.18
2023-05-24T03:13:26.528Z,5.75
2023-05-24T03:15:53.509Z,5.28
2023-05-24T03:18:20.723Z,5.65
2023-05-24T03:20:47.734Z,5.30
2023-05-24T03:23:15.169Z,5.28
2023-05-24T03:25:43.080Z,5.35
2023-05-24T03:28:10.693Z,5.85
2023-05-24T03:30:37.545Z,6.82
2023-05-24T03:33:04.643Z,5.93
2023-05-24T03:35:32.632Z,6.10
2023-05-24T03:37:59.693Z,5.20
2023-05-24T03:40:32.299Z,5.68
2023-05-24T03:43:04.922Z,6.00
2023-05-24T03:45:45.998Z,4.38
2023-05-24T03:48:13.410Z,5.80
2023-05-24T03:50:40.407Z,5.05
2023-05-24T03:53:07.667Z,4.95
2023-05-24T03:55:34.804Z,5.68
2023-05-24T03:58:02.033Z,5.68
2023-05-24T04:00:29.027Z,5.20
2023-05-24T04:02:56.588Z,5.32
2023-05-24T04:05:29.954Z,5.53
2023-05-24T04:07:57.122Z,5.38
2023-05-24T04:10:23.988Z,5.68
2023-05-24T04:12:51.073Z,5.93
2023-05-24T04:15:18.087Z,7.05
2023-05-24T04:17:46.602Z,5.40
2023-05-24T04:20:15.109Z,5.20
2023-05-24T04:22:43.414Z,5.97
2023-05-24T04:25:14.877Z,5.65
2023-05-24T04:27:41.905Z,6.15
2023-05-24T04:30:11.523Z,5.28
2023-05-24T04:32:40.617Z,6.20
2023-05-24T04:35:08.416Z,6.07
2023-05-24T04:37:35.428Z,5.22
2023-05-24T04:40:04.334Z,5.57
2023-05-24T04:42:31.782Z,4.93
2023-05-24T04:45:01.747Z,5.90
2023-05-24T04:47:28.981Z,4.78
2023-05-24T04:49:55.879Z,4.65
2023-05-24T04:52:22.814Z,5.10
2023-05-24T04:54:49.989Z,6.25
2023-05-24T04:57:17.476Z,5.90
2023-05-24T04:59:44.514Z,5.55
2023-05-24T05:02:11.590Z,4.95
2023-05-24T05:04:38.729Z,4.93
2023-05-24T05:07:05.805Z,6.93
2023-05-24T05:09:32.681Z,6.03
2023-05-24T05:12:00.044Z,5.32
2023-05-24T05:14:28.380Z,4.80
2023-05-24T05:16:55.376Z,4.97
2023-05-24T05:19:22.217Z,4.50
2023-05-24T05:21:48.995Z,4.90
2023-05-24T05:24:16.772Z,5.32
2023-05-24T05:26:43.602Z,5.40
2023-05-24T05:29:10.586Z,5.93
2023-05-24T05:31:37.538Z,5.55
2023-05-24T05:34:04.703Z,5.97
2023-05-24T05:36:32.362Z,5.35
2023-05-24T05:38:59.237Z,5.18
2023-05-24T05:41:26.133Z,4.32
2023-05-24T05:43:52.942Z,4.55
2023-05-24T05:46:21.454Z,5.70
2023-05-24T05:48:48.304Z,5.60
2023-05-24T05:51:15.245Z,4.13
2023-05-24T05:53:42.266Z,6.28
2023-05-24T05:56:09.341Z,5.82
2023-05-24T05:58:36.520Z,5.78
2023-05-24T06:01:03.563Z,4.20
2023-05-24T06:03:30.641Z,5.07
2023-05-24T06:05:57.557Z,4.70
2023-05-24T06:08:24.455Z,4.20
2023-05-24T06:10:52.941Z,5.50
2023-05-24T06:13:19.968Z,4.50
2023-05-24T06:15:46.824Z,6.22
2023-05-24T06:18:13.781Z,4.55
2023-05-24T06:20:40.946Z,4.70
2023-05-24T06:23:08.128Z,4.85
2023-05-24T06:25:35.306Z,5.32
2023-05-24T06:28:02.385Z,4.50
2023-05-24T06:30:29.279Z,5.20
2023-05-24T06:32:56.537Z,4.88
2023-05-24T06:35:23.462Z,4.90
2023-05-24T06:37:50.552Z,5.03
2023-05-24T06:40:17.648Z,4.45
2023-05-24T06:42:44.473Z,5.00
2023-05-24T06:45:13.761Z,4.50
2023-05-24T06:47:41.043Z,5.55
2023-05-24T06:50:09.673Z,4.93
2023-05-24T06:52:36.436Z,4.95
2023-05-24T06:55:03.291Z,5.05
2023-05-24T06:57:30.117Z,5.13
2023-05-24T06:59:57.266Z,5.80
2023-05-24T07:02:27.423Z,5.80
2023-05-24T07:04:54.673Z,5.20
2023-05-24T07:07:21.837Z,5.00
2023-05-24T07:09:48.642Z,4.97
2023-05-24T07:12:15.566Z,5.05
2023-05-24T07:14:42.760Z,4.38
2023-05-24T07:17:09.982Z,4.70
2023-05-24T07:19:37.199Z,4.93
2023-05-24T07:22:04.158Z,4.05
2023-05-24T07:24:33.157Z,4.70
2023-05-24T07:26:59.976Z,5.10
2023-05-24T07:29:26.874Z,4.35
2023-05-24T07:31:56.670Z,4.25
2023-05-24T07:34:27.532Z,4.47
2023-05-24T07:36:54.443Z,4.90
2023-05-24T07:39:21.532Z,4.03
2023-05-24T07:41:48.704Z,4.25
2023-05-24T07:44:17.722Z,4.78
2023-05-24T07:46:44.524Z,4.80
2023-05-24T07:49:11.509Z,4.15
2023-05-24T07:51:39.299Z,4.65
2023-05-24T07:54:06.354Z,5.13
2023-05-24T07:56:33.402Z,5.00
2023-05-24T07:59:04.766Z,6.05
2023-05-24T08:01:35.717Z,4.45
2023-05-24T08:04:08.855Z,3.90
2023-05-24T08:06:36.292Z,4.50
2023-05-24T08:09:05.543Z,4.70
2023-05-24T08:11:32.307Z,4.40
2023-05-24T08:13:59.277Z,4.10
2023-05-24T08:16:26.160Z,4.18
2023-05-24T08:18:55.112Z,4.22
2023-05-24T08:21:22.563Z,4.20
2023-05-24T08:23:49.340Z,4.03
2023-05-24T08:26:19.150Z,4.75
2023-05-24T08:28:46.105Z,4.07
2023-05-24T08:31:12.917Z,4.05
2023-05-24T08:33:40.070Z,4.72
2023-05-24T08:36:07.238Z,4.43
2023-05-24T08:38:34.068Z,4.35
2023-05-24T08:41:04.462Z,4.00
2023-05-24T08:43:32.840Z,4.43
2023-05-24T08:46:01.848Z,3.88
2023-05-24T08:48:29.206Z,3.83
2023-05-24T08:50:58.263Z,4.38
2023-05-24T08:53:25.509Z,4.05
2023-05-24T08:55:55.780Z,4.03
2023-05-24T08:58:22.958Z,4.50
2023-05-24T09:00:49.946Z,3.50
2023-05-24T09:03:17.868Z,3.67
2023-05-24T09:05:45.635Z,3.75
2023-05-24T09:08:17.916Z,3.70
2023-05-24T09:10:54.935Z,3.00
2023-05-24T09:13:24.924Z,3.97
2023-05-24T09:15:53.420Z,3.22
2023-05-24T09:18:20.362Z,4.20
2023-05-24T09:20:47.669Z,2.83
2023-05-24T09:23:15.797Z,2.90
2023-05-24T09:25:46.904Z,4.10
2023-05-24T09:28:16.281Z,3.50
2023-05-24T09:30:57.490Z,3.03
2023-05-24T09:33:28.471Z,3.38
2023-05-24T09:36:01.962Z,3.83
2023-05-24T09:38:29.714Z,3.65
2023-05-24T09:41:03.362Z,3.65
2023-05-24T09:43:31.865Z,3.97
2023-05-24T09:46:00.160Z,2.83
2023-05-24T09:48:27.451Z,3.83
2023-05-24T09:51:07.775Z,3.83
2023-05-24T09:53:35.919Z,3.33
2023-05-24T09:56:08.732Z,3.42
2023-05-24T09:58:36.752Z,3.97
2023-05-24T10:01:06.741Z,3.40
2023-05-24T10:03:34.912Z,3.72
2023-05-24T10:06:05.210Z,3.83
2023-05-24T10:08:33.736Z,3.60
2023-05-24T10:11:03.736Z,3.00
2023-05-24T10:13:35.642Z,2.92
2023-05-24T10:16:06.313Z,3.35
2023-05-24T10:18:33.448Z,3.75
2023-05-24T10:21:01.920Z,3.38
2023-05-24T10:23:31.522Z,2.92
2023-05-24T10:26:09.009Z,3.50
2023-05-24T10:28:47.607Z,4.10
2023-05-24T10:31:34.666Z,3.88
2023-05-24T10:34:08.380Z,4.15
2023-05-24T10:36:37.339Z,3.63
2023-05-24T10:39:05.016Z,3.30
2023-05-24T10:41:40.849Z,3.22
2023-05-24T10:44:13.206Z,3.30
2023-05-24T10:47:20.067Z,3.08
2023-05-24T10:49:52.595Z,3.40
2023-05-24T10:55:10.471Z,3.00
2023-05-24T10:57:38.479Z,3.15
2023-05-24T11:00:33.864Z,3.03
2023-05-24T11:03:09.780Z,2.70
2023-05-24T11:05:53.192Z,3.20
2023-05-24T11:08:25.798Z,3.00
2023-05-24T11:11:24.720Z,3.25
2023-05-24T11:13:57.854Z,3.13
2023-05-24T11:16:41.826Z,3.28
2023-05-24T11:19:18.704Z,3.53
2023-05-24T11:21:48.310Z,3.33
2023-05-24T11:24:18.160Z,3.45
2023-05-24T11:26:45.847Z,3.70
2023-05-24T11:29:17.993Z,3.00
2023-05-24T11:31:53.068Z,3.17
2023-05-24T11:34:21.861Z,3.25
2023-05-24T11:36:49.993Z,3.00
2023-05-24T11:39:16.925Z,3.42
2023-05-24T11:41:44.540Z,2.80
2023-05-24T11:44:12.388Z,2.95
2023-05-24T11:46:40.654Z,3.28
2023-05-24T11:49:11.989Z,3.08
2023-05-24T11:51:38.892Z,2.80
2023-05-24T11:54:05.895Z,3.60
2023-05-24T11:56:34.114Z,3.33
2023-05-24T11:59:17.375Z,2.80
2023-05-24T12:01:44.940Z,3.03
2023-05-24T12:04:13.043Z,3.25
2023-05-24T12:06:44.497Z,3.38
2023-05-24T12:09:16.944Z,2.88
2023-05-24T12:11:48.333Z,3.28
2023-05-24T12:14:26.933Z,3.85
2023-05-24T12:16:56.300Z,3.05
2023-05-24T12:19:33.291Z,3.38
2023-05-24T12:22:04.804Z,3.20
2023-05-24T12:24:32.093Z,3.25
2023-05-24T12:27:07.561Z,3.08
2023-05-24T12:29:36.460Z,2.83
2023-05-24T12:32:04.301Z,3.00
2023-05-24T12:34:31.205Z,3.22
2023-05-24T12:36:59.362Z,2.97
2023-05-24T12:39:37.406Z,3.30
2023-05-24T12:42:04.771Z,3.55
2023-05-24T12:44:36.361Z,3.17
2023-05-24T12:47:06.504Z,3.33
2023-05-24T12:49:33.795Z,3.13
2023-05-24T12:52:01.814Z,4.10
2023-05-24T12:54:29.389Z,3.53
2023-05-24T12:56:57.749Z,3.83
2023-05-24T12:59:26.202Z,2.97
2023-05-24T13:01:53.426Z,2.97
2023-05-24T13:04:23.006Z,3.20
2023-05-24T13:06:49.847Z,3.53
2023-05-24T13:09:21.481Z,3.25
2023-05-24T13:11:48.475Z,3.40
2023-05-24T13:14:19.495Z,3.15
2023-05-24T13:16:46.362Z,3.50
2023-05-24T13:19:13.432Z,3.85
2023-05-24T13:21:40.443Z,3.40
2023-05-24T13:24:07.591Z,3.25
2023-05-24T13:26:38.413Z,3.30
2023-05-24T13:29:32.198Z,3.58
2023-05-24T13:31:54.887Z,3.00
2023-05-24T13:34:23.109Z,3.97
2023-05-24T13:36:50.096Z,3.15
2023-05-24T13:39:16.905Z,3.35
2023-05-24T13:41:45.066Z,3.90
2023-05-24T13:44:16.565Z,2.88
2023-05-24T13:46:44.048Z,2.85
2023-05-24T13:49:11.384Z,2.65
2023-05-24T13:51:38.935Z,3.15
2023-05-24T13:54:07.405Z,2.65
2023-05-24T13:56:35.040Z,3.30
2023-05-24T13:59:03.618Z,3.60
2023-05-24T14:01:31.207Z,3.78
2023-05-24T14:03:58.391Z,2.90
2023-05-24T14:06:25.397Z,2.97
2023-05-24T14:08:52.348Z,2.75
2023-05-24T14:11:19.733Z,2.78
2023-05-24T14:16:17.473Z,3.08
2023-05-24T14:18:44.697Z,2.90
2023-05-24T14:21:11.695Z,3.40
2023-05-24T14:23:39.172Z,4.05
2023-05-24T14:26:05.993Z,3.60
2023-05-24T14:28:32.774Z,3.63
2023-05-24T14:30:59.534Z,3.42
2023-05-24T14:33:26.376Z,3.40
2023-05-24T14:35:53.221Z,3.40
2023-05-24T14:38:20.105Z,3.05
2023-05-24T14:40:51.172Z,3.70
2023-05-24T14:43:18.276Z,3.95
2023-05-24T14:45:45.405Z,3.88
2023-05-24T14:48:12.830Z,3.10
2023-05-24T14:50:40.763Z,3.40
2023-05-24T14:53:13.854Z,3.15
2023-05-24T14:55:42.824Z,3.85
2023-05-24T14:58:13.587Z,4.15
2023-05-24T15:00:41.738Z,3.25
2023-05-24T15:03:09.311Z,3.25
2023-05-24T15:05:36.953Z,3.70
2023-05-24T15:08:05.352Z,3.60
2023-05-24T15:10:32.075Z,3.38
2023-05-24T15:12:59.309Z,3.22
2023-05-24T15:15:25.992Z,3.55
2023-05-24T15:17:52.912Z,3.40
2023-05-24T15:20:19.915Z,3.63
2023-05-24T15:22:46.721Z,2.88
2023-05-24T15:25:13.755Z,3.20
2023-05-24T15:27:40.670Z,2.85
2023-05-24T15:30:07.937Z,3.22
2023-05-24T15:32:34.819Z,3.97
2023-05-24T15:35:01.782Z,2.95
2023-05-24T15:37:29.019Z,3.42
2023-05-24T15:39:55.772Z,3.88
2023-05-24T15:42:24.576Z,3.60
2023-05-24T15:44:51.607Z,3.63
2023-05-24T15:47:21.249Z,3.40
2023-05-24T15:49:49.848Z,2.95
2023-05-24T15:52:16.775Z,3.25
2023-05-24T15:54:43.477Z,3.40
2023-05-24T15:57:10.827Z,3.47
2023-05-24T15:59:38.622Z,3.05
2023-05-24T16:02:08.832Z,3.78
2023-05-24T16:04:35.799Z,3.20
2023-05-24T16:07:03.061Z,3.25
2023-05-24T16:09:29.828Z,3.55
2023-05-24T16:11:56.582Z,3.08
2023-05-24T16:14:23.402Z,3.25
2023-05-24T16:16:50.197Z,3.40
2023-05-24T16:19:16.969Z,3.10
2023-05-24T16:21:43.808Z,3.40
2023-05-24T16:24:10.795Z,3.20
2023-05-24T16:26:37.740Z,2.97
2023-05-24T16:29:06.473Z,3.08
2023-05-24T16:31:33.226Z,3.05
2023-05-24T16:34:01.075Z,3.38
2023-05-24T16:36:27.922Z,2.92
2023-05-24T16:38:54.805Z,4.03
2023-05-24T16:41:21.663Z,3.10
2023-05-24T16:43:48.569Z,3.22
2023-05-24T16:46:15.427Z,3.08
2023-05-24T16:48:42.382Z,2.70
2023-05-24T16:51:09.209Z,2.80
2023-05-24T16:53:36.161Z,3.00
2023-05-24T16:56:03.101Z,2.85
2023-05-24T16:58:30.837Z,2.40
2023-05-24T17:00:58.873Z,2.88
2023-05-24T17:03:29.924Z,2.85
2023-05-24T17:06:03.509Z,2.88
2023-05-24T17:08:35.527Z,3.03
2023-05-24T17:11:03.870Z,3.03
2023-05-24T17:13:31.336Z,2.78
2023-05-24T17:15:58.335Z,2.80
2023-05-24T17:18:29.157Z,2.85
2023-05-24T17:20:57.412Z,2.95
2023-05-24T17:23:25.759Z,3.35
2023-05-24T17:25:53.587Z,2.90
2023-05-24T17:28:20.317Z,3.60
2023-05-24T17:30:47.574Z,3.10
2023-05-24T17:33:14.315Z,3.53
2023-05-24T17:35:43.034Z,2.92
2023-05-24T17:38:10.016Z,2.90
2023-05-24T17:40:36.777Z,3.25
2023-05-24T17:43:03.855Z,2.88
2023-05-24T17:45:30.800Z,3.25
2023-05-24T17:47:58.557Z,2.92
2023-05-24T17:50:25.796Z,2.75
2023-05-24T17:52:52.583Z,2.35
2023-05-24T17:55:19.366Z,2.60
2023-05-24T17:57:46.080Z,3.35
2023-05-24T18:00:13.322Z,2.55
2023-05-24T18:02:45.743Z,2.90
2023-05-24T18:05:13.331Z,2.72
2023-05-24T18:07:40.626Z,2.90
2023-05-24T18:10:07.933Z,1.77
2023-05-24T18:12:34.708Z,2.60
2023-05-24T18:15:01.681Z,2.65
2023-05-24T18:17:28.636Z,2.72
2023-05-24T18:19:55.525Z,2.92
2023-05-24T18:22:22.548Z,2.35
2023-05-24T18:24:49.233Z,2.92
2023-05-24T18:27:15.983Z,2.60
2023-05-24T18:29:42.878Z,2.90
2023-05-24T18:32:09.705Z,2.38
2023-05-24T18:34:36.508Z,2.72
2023-05-24T18:37:03.368Z,3.47
2023-05-24T18:39:30.918Z,2.60
2023-05-24T18:41:57.712Z,2.88
2023-05-24T18:44:24.726Z,2.92
2023-05-24T18:46:55.441Z,2.30
2023-05-24T18:49:23.206Z,2.40
2023-05-24T18:51:50.208Z,2.50
2023-05-24T18:54:17.082Z,2.75
2023-05-24T18:56:43.938Z,2.30
2023-05-24T18:59:12.424Z,2.53
2023-05-24T19:01:39.522Z,3.38
2023-05-24T19:04:06.435Z,3.72
2023-05-24T19:06:33.249Z,4.45
2023-05-24T19:09:00.332Z,3.63
2023-05-24T19:11:28.198Z,3.17
2023-05-24T19:13:54.917Z,3.85
2023-05-24T19:16:21.748Z,3.70
2023-05-24T19:18:49.429Z,2.72
2023-05-24T19:21:16.215Z,3.42
2023-05-24T19:23:42.952Z,3.40
2023-05-24T19:26:09.742Z,3.17
2023-05-24T19:28:40.376Z,3.17
2023-05-24T19:31:07.241Z,3.05
2023-05-24T19:33:33.984Z,2.90
2023-05-24T19:36:01.731Z,3.03
2023-05-24T19:38:28.477Z,2.83
2023-05-24T19:40:55.280Z,3.67
2023-05-24T19:43:22.062Z,3.05
2023-05-24T19:45:51.647Z,3.42
2023-05-24T19:48:18.644Z,3.58
2023-05-24T19:50:46.626Z,3.13
2023-05-24T19:53:16.014Z,2.92
2023-05-24T19:55:43.272Z,3.60
2023-05-24T19:58:10.202Z,3.22
2023-05-24T20:00:36.964Z,3.92
2023-05-24T20:03:03.845Z,3.10
2023-05-24T20:05:30.813Z,3.67
2023-05-24T20:07:57.548Z,3.92
2023-05-24T20:10:24.388Z,3.78
2023-05-24T20:12:52.369Z,4.43
2023-05-24T20:15:19.482Z,4.28
2023-05-24T20:17:49.521Z,3.58
2023-05-24T20:20:16.818Z,3.15
2023-05-24T20:22:43.765Z,2.95
2023-05-24T20:25:11.124Z,2.92
2023-05-24T20:27:42.404Z,3.55
2023-05-24T20:30:11.087Z,3.05
2023-05-24T20:32:38.630Z,3.20
2023-05-24T20:35:06.065Z,3.60
2023-05-24T20:37:32.894Z,3.60
2023-05-24T20:39:59.866Z,4.03
2023-05-24T20:42:26.880Z,3.03
2023-05-24T20:44:53.692Z,2.92
2023-05-24T20:47:20.842Z,3.50
2023-05-24T20:49:47.846Z,4.60
2023-05-24T20:52:16.329Z,3.63
2023-05-24T20:54:43.322Z,3.80
2023-05-24T20:57:10.317Z,3.60
2023-05-24T20:59:37.268Z,3.15
2023-05-24T21:02:04.426Z,3.50
2023-05-24T21:04:31.399Z,3.25
2023-05-24T21:06:58.352Z,3.65
2023-05-24T21:09:25.044Z,3.42
2023-05-24T21:11:51.971Z,4.03
2023-05-24T21:14:18.676Z,3.35
2023-05-24T21:16:45.527Z,3.10
2023-05-24T21:19:12.606Z,3.30
2023-05-24T21:21:39.381Z,4.05
2023-05-24T21:24:06.300Z,3.25
2023-05-24T21:26:33.191Z,2.90
2023-05-24T21:29:00.368Z,3.97
2023-05-24T21:31:29.867Z,3.90
2023-05-24T21:33:57.153Z,3.22
2023-05-24T21:36:24.136Z,3.33
2023-05-24T21:38:51.260Z,3.70
2023-05-24T21:41:18.143Z,3.60
2023-05-24T21:43:44.983Z,3.85
2023-05-24T21:46:12.077Z,3.22
2023-05-24T21:48:38.874Z,3.28
2023-05-24T21:51:06.087Z,3.35
2023-05-24T21:53:35.068Z,3.22
2023-05-24T21:56:02.709Z,3.15
2023-05-24T21:58:29.815Z,3.05
2023-05-24T22:00:56.953Z,2.70
2023-05-24T22:03:24.100Z,3.60
2023-05-24T22:05:51.282Z,2.95
2023-05-24T22:08:18.274Z,3.45
2023-05-24T22:10:45.325Z,3.08
2023-05-24T22:13:12.307Z,3.45
2023-05-24T22:15:39.135Z,2.90
2023-05-24T22:18:06.218Z,3.50
2023-05-24T22:20:33.439Z,3.38
2023-05-24T22:23:00.474Z,3.55
2023-05-24T22:25:27.449Z,2.80
2023-05-24T22:27:55.983Z,3.17
2023-05-24T22:30:23.906Z,2.80
2023-05-24T22:32:51.115Z,3.58
2023-05-24T22:35:17.999Z,3.72
2023-05-24T22:37:44.908Z,3.55
2023-05-24T22:40:12.480Z,3.33
2023-05-24T22:42:39.469Z,4.07
2023-05-24T22:45:07.106Z,4.10
2023-05-24T22:47:33.978Z,3.50
2023-05-24T22:50:02.499Z,3.30
2023-05-24T22:52:33.893Z,3.40
2023-05-24T22:55:04.241Z,3.85
2023-05-24T22:57:32.383Z,3.35
2023-05-24T22:59:59.367Z,4.22
2023-05-24T23:02:29.224Z,3.25
2023-05-24T23:04:56.285Z,3.53
2023-05-24T23:07:23.551Z,3.15
2023-05-24T23:09:50.516Z,3.58
2023-05-24T23:12:18.489Z,3.70
2023-05-24T23:14:46.628Z,3.40
2023-05-24T23:17:14.024Z,4.40
2023-05-24T23:19:44.922Z,3.75
2023-05-24T23:22:14.211Z,3.80
2023-05-24T23:24:42.770Z,4.43
2023-05-24T23:27:09.892Z,4.45
2023-05-24T23:29:38.814Z,4.07
2023-05-24T23:32:09.827Z,3.97
2023-05-24T23:34:39.168Z,3.85
2023-05-24T23:37:07.183Z,4.00
2023-05-24T23:39:34.526Z,4.13
2023-05-24T23:42:02.726Z,3.60
2023-05-24T23:44:29.802Z,3.50
2023-05-24T23:46:57.501Z,3.53
2023-05-24T23:49:25.527Z,3.80
2023-05-24T23:51:52.523Z,3.15
2023-05-24T23:54:19.395Z,3.72
2023-05-24T23:56:46.419Z,3.63
2023-05-24T23:59:13.538Z,3.28
